createdAt,value
2018-11-21T00:01:52.874Z,99215.33
2018-11-21T00:04:40.850Z,99303.66
2018-11-21T00:07:33.432Z,99307.06
2018-11-21T00:10:14.374Z,99312.58
2018-11-21T00:12:55.010Z,99311.81
2018-11-21T00:15:35.937Z,99307.60
2018-11-21T00:18:17.370Z,99305.86
2018-11-21T00:21:06.293Z,99304.30
2018-11-21T00:23:47.488Z,99301.70
2018-11-21T00:26:35.657Z,99307.06
2018-11-21T00:29:23.891Z,99219.98
2018-11-21T00:31:53.281Z,99307.01
2018-11-21T00:34:42.055Z,99302.95
2018-11-21T00:37:21.821Z,99301.48
2018-11-21T00:39:53.040Z,99304.36
2018-11-21T00:42:46.680Z,99303.70
2018-11-21T00:45:24.325Z,99307.11
2018-11-21T00:48:05.945Z,99302.73
2018-11-21T00:50:53.996Z,99303.70
2018-11-21T00:53:33.588Z,99311.55
2018-11-21T00:56:14.827Z,99313.77
2018-11-21T00:58:55.783Z,99303.88
2018-11-21T01:01:37.367Z,99308.26
2018-11-21T01:04:18.578Z,99304.08
2018-11-21T01:06:48.152Z,99306.35
2018-11-21T01:09:18.352Z,99320.75
2018-11-21T01:12:06.585Z,99315.56
2018-11-21T01:14:54.829Z,99313.77
2018-11-21T01:17:43.087Z,99314.09
2018-11-21T01:20:12.595Z,99310.42
2018-11-21T01:22:41.781Z,99311.56
2018-11-21T01:25:30.071Z,99319.99
2018-11-21T01:28:18.463Z,99320.46
2018-11-21T01:30:59.290Z,99319.66
2018-11-21T01:33:47.625Z,99315.28
2018-11-21T01:36:35.968Z,99307.06
2018-11-21T01:39:17.273Z,99309.67
2018-11-21T01:42:05.599Z,99310.10
2018-11-21T01:44:54.117Z,99308.95
2018-11-21T01:47:35.296Z,99313.02
2018-11-21T01:50:04.522Z,99311.06
2018-11-21T01:52:33.632Z,99314.64
2018-11-21T01:55:21.861Z,99310.38
2018-11-21T01:58:02.358Z,99304.04
2018-11-21T02:00:43.681Z,99295.45
2018-11-21T02:03:12.849Z,99306.05
2018-11-21T02:05:42.249Z,99310.09
2018-11-21T02:08:30.401Z,99314.27
2018-11-21T02:11:18.854Z,99308.59
2018-11-21T02:14:07.229Z,99304.58
2018-11-21T02:16:48.618Z,99311.88
2018-11-21T02:19:29.942Z,99306.20
2018-11-21T02:22:01.893Z,99304.20
2018-11-21T02:24:50.513Z,99308.79
2018-11-21T02:27:31.770Z,99318.31
2018-11-21T02:30:13.041Z,99322.53
2018-11-21T02:32:54.298Z,99313.49
2018-11-21T02:35:35.625Z,99312.70
2018-11-21T02:38:16.580Z,99317.88
2018-11-21T02:40:45.716Z,99316.59
2018-11-21T02:43:14.906Z,99314.14
2018-11-21T02:46:03.101Z,99311.38
2018-11-21T02:48:42.800Z,99318.85
2018-11-21T02:51:24.151Z,99311.99
2018-11-21T02:53:54.489Z,99319.28
2018-11-21T02:57:02.288Z,99313.08
2018-11-21T02:59:43.484Z,99322.36
2018-11-21T03:02:24.925Z,99323.19
2018-11-21T03:05:06.078Z,99317.72
2018-11-21T03:11:01.762Z,99328.95
2018-11-21T03:13:42.942Z,99334.14
2018-11-21T03:16:32.233Z,99330.42
2018-11-21T03:19:01.354Z,99332.84
2018-11-21T03:21:30.749Z,99338.52
2018-11-21T03:24:18.899Z,99333.50
2018-11-21T03:27:06.827Z,99335.94
2018-11-21T03:29:55.082Z,99337.55
2018-11-21T03:32:36.501Z,99342.73
2018-11-21T03:35:05.929Z,99349.07
2018-11-21T03:40:54.122Z,99343.07
2018-11-21T03:43:35.002Z,99342.14
2018-11-21T03:46:15.719Z,99346.84
2018-11-21T03:48:45.224Z,99351.70
2018-11-21T03:51:14.302Z,99348.80
2018-11-21T03:54:02.500Z,99354.47
2018-11-21T03:56:32.639Z,99354.63
2018-11-21T03:59:20.943Z,99361.72
2018-11-21T04:02:01.422Z,99355.23
2018-11-21T04:04:41.949Z,99356.21
2018-11-21T04:07:11.049Z,99353.45
2018-11-21T04:09:40.378Z,99354.47
2018-11-21T04:12:28.928Z,99356.41
2018-11-21T04:14:58.206Z,99363.55
2018-11-21T04:17:46.423Z,99365.34
2018-11-21T04:20:15.447Z,99369.07
2018-11-21T04:25:51.347Z,99383.86
2018-11-21T04:28:58.672Z,99377.70
2018-11-21T04:31:46.927Z,99384.35
2018-11-21T04:34:35.393Z,99391.32
2018-11-21T04:37:16.203Z,99400.05
2018-11-21T04:39:45.159Z,99409.48
2018-11-21T04:42:34.040Z,99407.22
2018-11-21T04:45:42.405Z,99413.70
2018-11-21T04:48:23.331Z,99411.27
2018-11-21T04:50:52.509Z,99415.00
2018-11-21T04:53:40.598Z,99415.89
2018-11-21T04:56:09.636Z,99408.80
2018-11-21T04:58:57.962Z,99406.52
2018-11-21T05:01:39.206Z,99408.80
2018-11-21T05:04:08.406Z,99418.81
2018-11-21T05:06:37.913Z,99413.42
2018-11-21T05:09:45.543Z,99419.58
2018-11-21T05:12:27.351Z,99417.30
2018-11-21T05:14:56.703Z,99425.38
2018-11-21T05:17:46.806Z,99335.63
2018-11-21T05:20:14.408Z,99432.03
2018-11-21T05:23:02.521Z,99428.78
2018-11-21T05:25:31.645Z,99428.91
2018-11-21T05:28:20.416Z,99435.43
2018-11-21T05:31:08.661Z,99430.89
2018-11-21T05:33:56.984Z,99435.11
2018-11-21T05:36:38.342Z,99343.70
2018-11-21T05:39:22.958Z,99436.09
2018-11-21T05:41:52.792Z,99418.53
2018-11-21T05:44:21.934Z,99444.68
2018-11-21T05:47:10.331Z,99447.56
2018-11-21T05:49:39.413Z,99455.02
2018-11-21T05:52:08.537Z,99449.84
2018-11-21T05:54:38.173Z,99458.75
2018-11-21T05:57:27.263Z,99463.30
2018-11-21T06:00:08.666Z,99458.75
2018-11-21T06:02:50.060Z,99463.45
2018-11-21T06:05:19.359Z,99464.59
2018-11-21T06:08:07.638Z,99468.81
2018-11-21T06:10:55.850Z,99460.41
2018-11-21T06:13:24.846Z,99460.42
2018-11-21T06:16:13.228Z,99468.69
2018-11-21T06:18:42.388Z,99464.34
2018-11-21T06:21:11.527Z,99469.21
2018-11-21T06:23:59.338Z,99477.48
2018-11-21T06:27:06.770Z,99483.29
2018-11-21T06:29:47.813Z,99488.88
2018-11-21T06:32:29.035Z,99489.81
2018-11-21T06:35:11.517Z,99488.80
2018-11-21T06:37:40.583Z,99496.14
2018-11-21T06:40:28.771Z,99507.33
2018-11-21T06:42:58.878Z,99499.55
2018-11-21T06:45:47.277Z,99509.92
2018-11-21T06:51:10.923Z,99518.00
2018-11-21T06:53:40.191Z,99435.27
2018-11-21T06:56:28.439Z,99523.52
2018-11-21T06:59:18.582Z,99534.19
2018-11-21T07:01:47.993Z,99536.82
2018-11-21T07:04:17.073Z,99538.09
2018-11-21T07:06:46.138Z,99549.09
2018-11-21T07:09:34.624Z,99551.06
2018-11-21T07:12:22.863Z,99554.80
2018-11-21T07:15:06.868Z,99556.09
2018-11-21T07:20:09.235Z,99438.54
2018-11-21T07:22:38.542Z,99558.17
2018-11-21T07:25:28.815Z,99560.77
2018-11-21T07:28:17.070Z,99561.42
2018-11-21T07:30:58.612Z,99564.79
2018-11-21T07:33:46.350Z,99563.33
2018-11-21T07:36:21.214Z,99573.39
2018-11-21T07:38:50.657Z,99564.92
2018-11-21T07:41:20.135Z,99558.42
2018-11-21T07:44:08.200Z,99472.79
2018-11-21T07:46:37.678Z,99571.41
2018-11-21T07:49:06.891Z,99565.70
2018-11-21T07:51:36.169Z,99570.89
2018-11-21T07:54:05.687Z,99571.02
2018-11-21T07:57:13.203Z,99578.12
2018-11-21T08:00:20.627Z,99569.03
2018-11-21T08:03:08.822Z,99575.84
2018-11-21T08:05:44.297Z,99585.42
2018-11-21T08:08:26.974Z,99582.50
2018-11-21T08:14:03.749Z,99581.66
2018-11-21T08:16:54.508Z,99581.62
2018-11-21T08:19:44.386Z,99587.66
2018-11-21T08:22:47.114Z,99582.02
2018-11-21T08:25:35.160Z,99595.77
2018-11-21T08:28:24.060Z,99587.81
2018-11-21T08:30:52.969Z,99589.73
2018-11-21T08:37:08.836Z,99601.42
2018-11-21T08:39:38.285Z,99606.62
2018-11-21T08:42:07.341Z,99608.89
2018-11-21T08:44:36.351Z,99606.25
2018-11-21T08:47:24.311Z,99611.00
2018-11-21T08:49:53.790Z,99603.70
2018-11-21T08:52:43.121Z,99607.11
2018-11-21T08:58:24.432Z,99625.25
2018-11-21T09:01:12.981Z,99627.48
2018-11-21T09:03:41.979Z,99620.50
2018-11-21T09:06:11.557Z,99622.93
2018-11-21T09:08:59.744Z,99627.00
2018-11-21T09:11:28.836Z,99629.72
2018-11-21T09:14:17.320Z,99622.20
2018-11-21T09:17:05.819Z,99622.00
2018-11-21T09:19:35.487Z,99625.86
2018-11-21T09:22:23.893Z,99620.33
2018-11-21T09:24:52.985Z,99624.84
2018-11-21T09:27:22.492Z,99625.00
2018-11-21T09:29:51.494Z,99629.05
2018-11-21T09:32:20.605Z,99634.70
2018-11-21T09:34:49.990Z,99635.83
2018-11-21T09:37:38.132Z,99609.77
2018-11-21T09:40:27.455Z,99639.89
2018-11-21T09:42:58.241Z,99646.52
2018-11-21T09:45:28.508Z,99643.27
2018-11-21T09:47:58.985Z,99645.55
2018-11-21T09:50:30.605Z,99644.56
2018-11-21T09:53:00.964Z,99635.14
2018-11-21T09:55:31.016Z,99645.91
2018-11-21T09:58:01.031Z,99641.52
2018-11-21T10:01:09.045Z,99640.18
2018-11-21T10:03:40.024Z,99647.64
2018-11-21T10:06:47.736Z,99642.25
2018-11-21T10:09:39.113Z,99642.28
2018-11-21T10:12:20.085Z,99552.18
2018-11-21T10:14:49.424Z,99643.17
2018-11-21T10:17:37.986Z,99641.13
2018-11-21T10:20:08.303Z,99644.81
2018-11-21T10:22:37.415Z,99635.91
2018-11-21T10:25:10.416Z,99636.98
2018-11-21T10:27:39.470Z,99600.85
2018-11-21T10:30:08.643Z,99633.61
2018-11-21T10:32:38.111Z,99635.33
2018-11-21T10:35:07.262Z,99636.91
2018-11-21T10:37:36.565Z,99639.75
2018-11-21T10:40:06.598Z,99635.79
2018-11-21T10:42:35.750Z,99636.75
2018-11-21T10:45:05.834Z,99632.06
2018-11-21T10:47:36.091Z,99633.38
2018-11-21T10:50:06.245Z,99635.37
2018-11-21T10:52:54.726Z,99590.55
2018-11-21T10:55:35.521Z,99640.46
2018-11-21T10:58:05.780Z,99642.69
2018-11-21T11:01:13.142Z,99643.64
2018-11-21T11:03:57.380Z,99641.70
2018-11-21T11:06:46.937Z,99648.84
2018-11-21T11:09:33.418Z,99655.75
2018-11-21T11:12:39.621Z,99651.02
2018-11-21T11:18:35.251Z,99564.22
2018-11-21T11:21:24.896Z,99651.50
2018-11-21T11:24:34.127Z,99645.98
2018-11-21T11:27:42.299Z,99649.30
2018-11-21T11:30:30.577Z,99648.27
2018-11-21T11:36:21.260Z,99641.50
2018-11-21T11:39:09.617Z,99636.78
2018-11-21T11:41:58.771Z,99640.80
2018-11-21T11:44:47.030Z,99644.05
2018-11-21T11:47:35.065Z,99649.57
2018-11-21T11:50:41.216Z,99652.01
2018-11-21T11:56:31.756Z,99658.41
2018-11-21T11:59:40.870Z,99657.98
2018-11-21T12:02:27.911Z,99659.52
2018-11-21T12:05:16.043Z,99653.22
2018-11-21T12:08:04.382Z,99655.03
2018-11-21T12:11:15.628Z,99650.80
2018-11-21T12:14:18.536Z,99651.42
2018-11-21T12:17:20.332Z,99643.98
2018-11-21T12:20:08.358Z,99655.58
2018-11-21T12:23:15.860Z,99659.38
2018-11-21T12:26:16.369Z,99667.01
2018-11-21T12:29:16.889Z,99664.41
2018-11-21T12:32:16.797Z,99663.92
2018-11-21T12:35:16.505Z,99554.87
2018-11-21T12:38:04.645Z,99661.33
2018-11-21T12:40:51.202Z,99664.34
2018-11-21T12:43:59.470Z,99660.73
2018-11-21T12:46:59.710Z,99660.92
2018-11-21T12:50:02.863Z,99649.39
2018-11-21T12:53:02.338Z,99651.71
2018-11-21T12:55:50.664Z,99652.37
2018-11-21T12:58:58.253Z,99653.83
2018-11-21T13:01:46.481Z,99654.84
2018-11-21T13:04:54.610Z,99650.75
2018-11-21T13:07:42.630Z,99649.13
2018-11-21T13:10:36.881Z,99645.55
2018-11-21T13:13:44.011Z,99652.58
2018-11-21T13:16:43.671Z,99645.67
2018-11-21T13:19:33.442Z,99648.11
2018-11-21T13:22:41.842Z,99649.90
2018-11-21T13:25:31.212Z,99656.08
2018-11-21T13:28:40.270Z,99657.61
2018-11-21T13:31:41.127Z,99659.41
2018-11-21T13:34:42.364Z,99664.93
2018-11-21T13:37:47.454Z,99662.33
2018-11-21T13:40:48.098Z,99666.02
2018-11-21T13:43:51.198Z,99665.22
2018-11-21T13:49:40.224Z,99669.19
2018-11-21T13:52:32.134Z,99668.22
2018-11-21T13:59:07.835Z,99673.77
2018-11-21T14:01:50.267Z,99593.41
2018-11-21T14:04:31.876Z,99686.76
2018-11-21T14:07:13.099Z,99686.47
2018-11-21T14:09:54.237Z,99689.88
2018-11-21T14:12:23.420Z,99691.18
2018-11-21T14:15:12.162Z,99686.98
2018-11-21T14:17:42.671Z,99688.45
2018-11-21T14:20:14.538Z,99689.75
2018-11-21T14:22:49.589Z,99686.83
2018-11-21T14:25:23.242Z,99692.41
2018-11-21T14:27:54.831Z,99695.33
2018-11-21T14:30:43.010Z,99693.84
2018-11-21T14:33:24.484Z,99692.70
2018-11-21T14:39:13.518Z,99702.41
2018-11-21T14:41:55.045Z,99704.39
2018-11-21T14:44:39.053Z,99704.93
2018-11-21T14:47:18.846Z,99700.22
2018-11-21T14:49:59.746Z,99703.47
2018-11-21T14:52:47.747Z,99716.45
2018-11-21T14:55:17.912Z,99716.11
2018-11-21T14:57:47.610Z,99714.32
2018-11-21T15:00:19.369Z,99715.95
2018-11-21T15:02:49.142Z,99719.67
2018-11-21T15:05:37.280Z,99723.57
2018-11-21T15:08:08.260Z,99728.28
2018-11-21T15:10:37.306Z,99733.02
2018-11-21T15:13:10.255Z,99727.98
2018-11-21T15:15:58.665Z,99739.34
2018-11-21T15:18:47.480Z,99738.53
2018-11-21T15:21:18.166Z,99743.05
2018-11-21T15:23:48.431Z,99739.48
2018-11-21T15:26:17.605Z,99743.89
2018-11-21T15:28:48.330Z,99735.44
2018-11-21T15:31:20.051Z,99762.23
2018-11-21T15:33:49.729Z,99748.92
2018-11-21T15:36:56.940Z,99748.59
2018-11-21T15:42:53.520Z,99750.86
2018-11-21T15:45:24.085Z,99751.53
2018-11-21T15:47:55.412Z,99762.73
2018-11-21T15:50:24.919Z,99764.54
2018-11-21T15:52:54.164Z,99757.22
2018-11-21T15:55:23.408Z,99762.23
2018-11-21T15:57:56.086Z,99764.20
2018-11-21T16:03:27.239Z,99766.79
2018-11-21T16:09:00.131Z,99775.55
2018-11-21T16:11:31.904Z,99778.15
2018-11-21T16:14:01.230Z,99778.17
2018-11-21T16:16:30.680Z,99779.47
2018-11-21T16:18:59.725Z,99782.23
2018-11-21T16:21:29.698Z,99780.13
2018-11-21T16:23:58.954Z,99780.13
2018-11-21T16:26:31.236Z,99782.22
2018-11-21T16:29:00.352Z,99782.38
2018-11-21T16:31:29.513Z,99784.02
2018-11-21T16:33:58.655Z,99780.94
2018-11-21T16:36:30.281Z,99791.02
2018-11-21T16:38:59.996Z,99792.63
2018-11-21T16:41:48.620Z,99793.11
2018-11-21T16:44:40.900Z,99794.41
2018-11-21T16:47:29.519Z,99790.36
2018-11-21T16:49:58.848Z,99797.65
2018-11-21T16:52:30.015Z,99798.63
2018-11-21T16:55:06.399Z,99800.09
2018-11-21T16:57:40.769Z,99797.99
2018-11-21T17:00:16.313Z,99803.67
2018-11-21T17:02:45.459Z,99807.89
2018-11-21T17:05:16.010Z,99815.04
2018-11-21T17:07:45.698Z,99815.20
2018-11-21T17:10:16.668Z,99813.41
2018-11-21T17:12:46.909Z,99809.33
2018-11-21T17:15:18.257Z,99810.63
2018-11-21T17:17:47.493Z,99808.36
2018-11-21T17:20:54.687Z,99807.39
2018-11-21T17:23:43.296Z,99811.13
2018-11-21T17:26:24.362Z,99793.11
2018-11-21T17:29:08.775Z,99812.73
2018-11-21T17:31:47.308Z,99816.16
2018-11-21T17:34:28.088Z,99819.89
2018-11-21T17:37:09.599Z,99813.06
2018-11-21T17:39:57.866Z,99817.60
2018-11-21T17:42:46.332Z,99818.91
2018-11-21T17:45:16.142Z,99818.09
2018-11-21T17:47:45.435Z,99823.77
2018-11-21T17:50:33.722Z,99828.48
2018-11-21T17:53:22.027Z,99828.66
2018-11-21T17:56:10.760Z,99826.86
2018-11-21T17:58:40.080Z,99832.41
2018-11-21T18:01:09.340Z,99832.41
2018-11-21T18:03:38.760Z,99835.30
2018-11-21T18:06:10.006Z,99841.95
2018-11-21T18:08:39.899Z,99834.64
2018-11-21T18:11:47.319Z,99837.23
2018-11-21T18:14:35.835Z,99829.96
2018-11-21T18:17:05.496Z,99836.75
2018-11-21T18:19:35.881Z,99838.88
2018-11-21T18:22:05.134Z,99842.45
2018-11-21T18:24:53.756Z,99836.44
2018-11-21T18:30:37.619Z,99841.95
2018-11-21T18:33:19.646Z,99841.97
2018-11-21T18:36:00.660Z,99846.99
2018-11-21T18:38:30.187Z,99844.88
2018-11-21T18:40:59.335Z,99859.16
2018-11-21T18:43:28.939Z,99854.47
2018-11-21T18:45:58.779Z,99856.58
2018-11-21T18:48:27.783Z,99682.78
2018-11-21T18:50:56.892Z,99850.41
2018-11-21T18:53:25.985Z,99849.59
2018-11-21T18:56:33.525Z,99852.52
2018-11-21T18:59:24.122Z,99852.33
2018-11-21T19:01:53.345Z,99850.56
2018-11-21T19:04:41.585Z,99854.30
2018-11-21T19:07:11.014Z,99852.02
2018-11-21T19:09:40.188Z,99851.55
2018-11-21T19:12:28.525Z,99859.32
2018-11-21T19:15:17.674Z,99858.35
2018-11-21T19:17:59.178Z,99867.77
2018-11-21T19:20:28.634Z,99862.58
2018-11-21T19:22:57.729Z,99845.36
2018-11-21T19:25:27.239Z,99862.42
2018-11-21T19:27:56.545Z,99868.90
2018-11-21T19:30:26.957Z,99864.19
2018-11-21T19:32:56.362Z,99859.16
2018-11-21T19:35:25.543Z,99862.41
2018-11-21T19:37:54.939Z,99862.06
2018-11-21T19:40:25.317Z,99861.09
2018-11-21T19:42:54.460Z,99868.89
2018-11-21T19:45:23.484Z,99864.17
2018-11-21T19:47:52.569Z,99868.90
2018-11-21T19:50:21.961Z,99870.83
2018-11-21T19:52:51.976Z,99875.70
2018-11-21T19:55:23.121Z,99874.09
2018-11-21T19:57:52.398Z,99872.64
2018-11-21T20:00:25.755Z,99872.78
2018-11-21T20:02:55.091Z,99876.53
2018-11-21T20:05:24.469Z,99870.34
2018-11-21T20:07:54.070Z,99881.23
2018-11-21T20:10:42.602Z,99881.72
2018-11-21T20:13:18.260Z,99871.33
2018-11-21T20:15:47.897Z,99857.55
2018-11-21T20:18:17.729Z,99873.27
2018-11-21T20:20:46.946Z,99878.95
2018-11-21T20:23:17.055Z,99877.16
2018-11-21T20:25:46.501Z,99878.95
2018-11-21T20:28:16.724Z,99880.73
2018-11-21T20:30:46.124Z,99877.16
2018-11-21T20:33:16.517Z,99871.48
2018-11-21T20:35:45.551Z,99869.39
2018-11-21T20:38:14.627Z,99873.28
2018-11-21T20:40:43.936Z,99877.17
2018-11-21T20:43:32.161Z,99876.67
2018-11-21T20:46:13.040Z,99876.20
2018-11-21T20:49:01.495Z,99885.78
2018-11-21T20:51:49.916Z,99885.94
2018-11-21T20:54:19.368Z,99884.30
2018-11-21T20:56:49.377Z,99891.30
2018-11-21T20:59:37.933Z,99888.37
2018-11-21T21:02:07.241Z,99891.30
2018-11-21T21:04:36.372Z,99895.52
2018-11-21T21:07:06.359Z,99893.72
2018-11-21T21:09:35.903Z,99896.65
2018-11-21T21:12:05.394Z,99900.08
2018-11-21T21:14:37.343Z,99897.62
2018-11-21T21:17:06.893Z,99891.14
2018-11-21T21:19:36.085Z,99894.55
2018-11-21T21:22:05.650Z,99894.86
2018-11-21T21:24:34.778Z,99896.48
2018-11-21T21:27:03.892Z,99892.27
2018-11-21T21:29:33.716Z,99893.73
2018-11-21T21:32:02.882Z,99895.36
2018-11-21T21:34:51.226Z,99892.12
2018-11-21T21:40:16.866Z,99896.32
2018-11-21T21:49:05.718Z,99890.66
2018-11-21T21:51:46.653Z,99892.12
2018-11-21T21:54:34.621Z,99894.38
2018-11-21T21:57:24.555Z,99897.45
2018-11-21T21:59:53.886Z,99899.58
2018-11-21T22:02:23.347Z,99901.84
2018-11-21T22:05:12.131Z,99901.66
2018-11-21T22:07:41.565Z,99904.44
2018-11-21T22:10:29.902Z,99906.06
2018-11-21T22:13:11.469Z,99910.61
2018-11-21T22:15:52.851Z,99907.34
2018-11-21T22:18:34.198Z,99903.95
2018-11-21T22:21:15.403Z,99889.34
2018-11-21T22:23:44.740Z,99906.54
2018-11-21T22:26:13.941Z,99909.30
2018-11-21T22:28:43.417Z,99912.22
2018-11-21T22:31:15.326Z,99910.92
2018-11-21T22:33:44.725Z,99907.51
2018-11-21T22:36:14.151Z,99908.66
2018-11-21T22:39:03.033Z,99922.93
2018-11-21T22:41:44.290Z,99912.39
2018-11-21T22:44:24.967Z,99910.59
2018-11-21T22:47:06.142Z,99905.91
2018-11-21T22:49:47.211Z,99911.25
2018-11-21T22:52:28.113Z,99910.92
2018-11-21T22:55:10.053Z,99919.52
2018-11-21T22:57:39.335Z,99919.20
2018-11-21T23:00:48.661Z,99913.67
2018-11-21T23:03:30.948Z,99915.13
2018-11-21T23:06:11.815Z,99916.75
2018-11-21T23:08:41.096Z,99911.56
2018-11-21T23:14:02.956Z,99918.89
2018-11-21T23:16:44.401Z,99910.59
2018-11-21T23:19:13.904Z,99914.34
2018-11-21T23:22:02.404Z,99915.13
2018-11-21T23:24:51.307Z,99908.97
2018-11-21T23:27:21.254Z,99912.38
2018-11-21T23:29:52.185Z,99911.08
2018-11-21T23:32:33.264Z,99907.99
2018-11-21T23:35:15.654Z,99912.70
2018-11-21T23:37:57.151Z,99911.41
2018-11-21T23:40:26.768Z,99907.36
2018-11-21T23:43:15.297Z,99902.64
2018-11-21T23:46:03.897Z,99903.30
2018-11-21T23:48:52.651Z,99901.03
2018-11-21T23:51:34.168Z,99902.50
2018-11-21T23:54:22.465Z,99901.20
2018-11-21T23:57:16.191Z,99905.59
2018-11-21T23:59:40.848Z,99907.85
